createdAt,value
2022-07-26T00:01:31.923Z,20.80
2022-07-26T00:03:59.683Z,20.70
2022-07-26T00:06:26.964Z,20.60
2022-07-26T00:08:53.699Z,20.60
2022-07-26T00:11:21.151Z,20.60
2022-07-26T00:13:48.437Z,20.40
2022-07-26T00:16:15.366Z,20.60
2022-07-26T00:18:42.893Z,20.30
2022-07-26T00:24:35.314Z,20.20
2022-07-26T00:27:20.945Z,20.10
2022-07-26T00:29:48.031Z,20.10
2022-07-26T00:32:15.031Z,20.10
2022-07-26T00:34:41.803Z,20.10
2022-07-26T00:37:08.593Z,20.10
2022-07-26T00:39:35.307Z,20.00
2022-07-26T00:42:02.043Z,20.00
2022-07-26T00:44:42.863Z,20.00
2022-07-26T00:47:10.414Z,20.00
2022-07-26T00:49:37.219Z,19.80
2022-07-26T00:52:06.069Z,19.80
2022-07-26T00:54:33.015Z,19.90
2022-07-26T00:57:00.475Z,20.10
2022-07-26T00:59:27.470Z,19.90
2022-07-26T01:01:54.542Z,19.80
2022-07-26T01:04:21.595Z,20.00
2022-07-26T01:06:49.703Z,19.90
2022-07-26T01:09:17.170Z,19.70
2022-07-26T01:11:43.962Z,19.70
2022-07-26T01:14:11.229Z,19.70
2022-07-26T01:16:38.317Z,19.70
2022-07-26T01:19:05.575Z,19.70
2022-07-26T01:21:33.592Z,19.70
2022-07-26T01:24:01.065Z,19.70
2022-07-26T01:26:28.037Z,19.70
2022-07-26T01:28:54.836Z,19.70
2022-07-26T01:31:21.953Z,19.90
2022-07-26T01:33:49.342Z,19.80
2022-07-26T01:36:16.271Z,19.60
2022-07-26T01:38:43.384Z,19.60
2022-07-26T01:41:10.271Z,19.60
2022-07-26T01:43:37.588Z,19.50
2022-07-26T01:46:06.482Z,19.60
2022-07-26T01:48:34.296Z,19.40
2022-07-26T01:51:01.665Z,19.40
2022-07-26T01:53:28.409Z,19.40
2022-07-26T01:55:55.448Z,19.40
2022-07-26T01:58:22.418Z,19.30
2022-07-26T02:00:50.027Z,19.20
2022-07-26T02:03:17.025Z,19.10
2022-07-26T02:05:43.929Z,19.10
2022-07-26T02:08:12.062Z,19.00
2022-07-26T02:10:58.049Z,18.80
2022-07-26T02:13:25.386Z,18.90
2022-07-26T02:15:52.282Z,18.80
2022-07-26T02:18:19.129Z,18.70
2022-07-26T02:20:45.943Z,18.70
2022-07-26T02:23:13.214Z,18.70
2022-07-26T02:25:39.883Z,18.60
2022-07-26T02:28:06.656Z,18.60
2022-07-26T02:30:33.689Z,18.50
2022-07-26T02:33:00.501Z,18.50
2022-07-26T02:35:27.346Z,18.50
2022-07-26T02:37:54.393Z,18.40
2022-07-26T02:40:21.101Z,18.40
2022-07-26T02:42:47.826Z,18.40
2022-07-26T02:45:14.627Z,18.40
2022-07-26T02:47:52.056Z,18.50
2022-07-26T02:50:19.749Z,18.30
2022-07-26T02:52:48.243Z,18.30
2022-07-26T02:55:16.670Z,18.30
2022-07-26T02:57:46.270Z,18.30
2022-07-26T03:00:15.981Z,18.20
2022-07-26T03:02:43.107Z,18.20
2022-07-26T03:05:10.375Z,18.20
2022-07-26T03:07:37.461Z,18.10
2022-07-26T03:10:05.182Z,18.00
2022-07-26T03:12:32.342Z,18.00
2022-07-26T03:14:59.046Z,18.00
2022-07-26T03:17:25.917Z,18.00
2022-07-26T03:19:52.771Z,18.00
2022-07-26T03:22:19.698Z,18.00
2022-07-26T03:24:46.429Z,18.10
2022-07-26T03:27:13.713Z,18.00
2022-07-26T03:29:40.422Z,18.00
2022-07-26T03:32:07.289Z,18.00
2022-07-26T03:34:34.000Z,18.10
2022-07-26T03:37:00.904Z,17.80
2022-07-26T03:39:27.655Z,17.90
2022-07-26T03:41:54.329Z,17.90
2022-07-26T03:44:21.090Z,17.80
2022-07-26T03:46:47.830Z,17.90
2022-07-26T03:49:16.924Z,17.80
2022-07-26T03:51:44.625Z,17.80
2022-07-26T03:54:11.782Z,17.80
2022-07-26T03:56:40.323Z,17.80
2022-07-26T03:59:10.160Z,17.70
2022-07-26T04:01:41.832Z,17.70
2022-07-26T04:04:09.884Z,17.70
2022-07-26T04:06:38.925Z,17.90
2022-07-26T04:09:06.728Z,17.70
2022-07-26T04:11:35.149Z,17.60
2022-07-26T04:14:02.225Z,17.60
2022-07-26T04:16:29.712Z,17.50
2022-07-26T04:18:56.586Z,17.40
2022-07-26T04:21:23.819Z,17.50
2022-07-26T04:23:51.844Z,17.50
2022-07-26T04:26:21.302Z,17.50
2022-07-26T04:28:48.670Z,17.50
2022-07-26T04:31:15.808Z,17.20
2022-07-26T04:33:43.012Z,17.30
2022-07-26T04:36:10.039Z,17.40
2022-07-26T04:38:36.791Z,17.20
2022-07-26T04:41:03.906Z,17.20
2022-07-26T04:43:32.562Z,17.10
2022-07-26T04:46:00.546Z,17.10
2022-07-26T04:48:27.832Z,17.10
2022-07-26T04:50:54.689Z,17.00
2022-07-26T04:53:21.723Z,17.10
2022-07-26T04:55:48.531Z,17.00
2022-07-26T04:58:15.318Z,17.10
2022-07-26T05:03:29.008Z,17.10
2022-07-26T05:05:55.697Z,17.10
2022-07-26T05:08:22.440Z,17.10
2022-07-26T05:10:55.633Z,17.30
2022-07-26T05:13:30.648Z,18.20
2022-07-26T05:15:59.491Z,19.10
2022-07-26T05:18:29.900Z,19.70
2022-07-26T05:20:58.539Z,20.10
2022-07-26T05:23:25.302Z,19.80
2022-07-26T05:25:52.118Z,19.80
2022-07-26T05:28:19.169Z,19.20
2022-07-26T05:30:46.143Z,19.10
2022-07-26T05:33:16.752Z,18.80
2022-07-26T05:35:43.754Z,19.50
2022-07-26T05:38:10.461Z,20.00
2022-07-26T05:40:37.209Z,21.10
2022-07-26T05:43:04.778Z,21.30
2022-07-26T05:45:31.860Z,21.80
2022-07-26T05:47:58.612Z,20.90
2022-07-26T05:50:26.918Z,20.90
2022-07-26T05:52:54.212Z,21.00
2022-07-26T05:55:22.978Z,21.20
2022-07-26T05:57:49.981Z,21.50
2022-07-26T06:00:17.278Z,21.10
2022-07-26T06:02:44.177Z,21.20
2022-07-26T06:05:11.373Z,21.90
2022-07-26T06:07:38.693Z,21.40
2022-07-26T06:10:06.179Z,22.10
2022-07-26T06:12:33.025Z,22.30
2022-07-26T06:14:59.903Z,21.80
2022-07-26T06:17:32.387Z,21.60
2022-07-26T06:20:00.174Z,22.10
2022-07-26T06:22:38.500Z,23.10
2022-07-26T06:25:08.956Z,23.40
2022-07-26T06:27:43.970Z,22.90
2022-07-26T06:30:11.334Z,22.40
2022-07-26T06:32:45.417Z,22.40
2022-07-26T06:35:13.295Z,23.10
2022-07-26T06:37:42.158Z,23.40
2022-07-26T06:40:10.817Z,23.60
2022-07-26T06:42:43.232Z,23.50
2022-07-26T06:45:13.379Z,23.60
2022-07-26T06:47:43.247Z,24.00
2022-07-26T06:50:12.820Z,23.60
2022-07-26T06:52:48.081Z,24.90
2022-07-26T06:55:15.070Z,24.00
2022-07-26T06:57:49.689Z,24.50
2022-07-26T07:00:18.449Z,24.40
2022-07-26T07:02:46.878Z,24.80
2022-07-26T07:05:13.684Z,25.40
2022-07-26T07:07:42.114Z,24.90
2022-07-26T07:10:10.209Z,23.90
2022-07-26T07:12:39.931Z,24.80
2022-07-26T07:15:07.773Z,26.20
2022-07-26T07:17:34.983Z,25.00
2022-07-26T07:20:03.703Z,24.10
2022-07-26T07:22:31.263Z,24.70
2022-07-26T07:24:58.474Z,24.60
2022-07-26T07:27:25.522Z,24.40
2022-07-26T07:29:54.211Z,24.30
2022-07-26T07:32:22.939Z,23.00
2022-07-26T07:34:51.920Z,22.70
2022-07-26T07:37:19.979Z,22.80
2022-07-26T07:39:48.918Z,22.40
2022-07-26T07:42:18.137Z,21.80
2022-07-26T07:44:47.995Z,21.60
2022-07-26T07:47:14.973Z,20.60
2022-07-26T07:49:41.990Z,20.10
2022-07-26T07:52:08.955Z,20.30
2022-07-26T07:54:35.806Z,20.70
2022-07-26T07:57:02.668Z,20.30
2022-07-26T07:59:32.585Z,20.70
2022-07-26T08:02:03.876Z,20.50
2022-07-26T08:04:30.649Z,20.90
2022-07-26T08:06:57.788Z,20.60
2022-07-26T08:09:24.891Z,20.20
2022-07-26T08:11:55.540Z,20.70
2022-07-26T08:14:22.385Z,21.00
2022-07-26T08:16:49.253Z,21.10
2022-07-26T08:19:16.438Z,21.20
2022-07-26T08:21:46.067Z,20.90
2022-07-26T08:24:13.920Z,21.30
2022-07-26T08:26:40.734Z,21.10
2022-07-26T08:29:07.712Z,20.50
2022-07-26T08:31:34.550Z,20.40
2022-07-26T08:34:01.544Z,20.70
2022-07-26T08:36:32.597Z,20.60
2022-07-26T08:39:01.228Z,20.60
2022-07-26T08:41:28.347Z,20.40
2022-07-26T08:43:55.206Z,20.00
2022-07-26T08:46:26.817Z,20.40
2022-07-26T08:48:55.973Z,20.90
2022-07-26T08:51:24.539Z,20.70
2022-07-26T08:53:59.064Z,20.60
2022-07-26T08:56:31.001Z,20.50
2022-07-26T08:58:57.858Z,20.80
2022-07-26T09:01:24.725Z,20.90
2022-07-26T09:03:51.688Z,21.00
2022-07-26T09:06:22.390Z,20.70
2022-07-26T09:08:53.191Z,20.60
2022-07-26T09:11:33.693Z,20.90
2022-07-26T09:14:04.367Z,21.20
2022-07-26T09:16:36.001Z,21.50
2022-07-26T09:19:26.548Z,21.40
2022-07-26T09:21:55.514Z,21.20
2022-07-26T09:24:41.460Z,20.70
2022-07-26T09:27:11.816Z,20.80
2022-07-26T09:30:05.460Z,20.90
2022-07-26T09:32:32.506Z,21.80
2022-07-26T09:35:45.967Z,21.90
2022-07-26T09:38:15.532Z,21.50
2022-07-26T09:40:42.705Z,21.60
2022-07-26T09:43:16.511Z,21.30
2022-07-26T09:46:07.263Z,21.10
2022-07-26T09:49:06.871Z,21.10
2022-07-26T09:51:41.290Z,21.20
2022-07-26T09:54:10.887Z,21.60
2022-07-26T09:56:45.362Z,21.40
2022-07-26T09:59:16.906Z,21.00
2022-07-26T10:01:44.476Z,22.80
2022-07-26T10:04:11.954Z,25.00
2022-07-26T10:06:40.286Z,23.60
2022-07-26T10:09:11.755Z,24.00
2022-07-26T10:12:03.296Z,23.40
2022-07-26T10:14:33.216Z,23.40
2022-07-26T10:17:01.738Z,24.20
2022-07-26T10:19:52.927Z,23.90
2022-07-26T10:22:53.347Z,23.30
2022-07-26T10:25:23.834Z,23.00
2022-07-26T10:27:53.040Z,23.10
2022-07-26T10:30:40.105Z,22.90
2022-07-26T10:33:13.309Z,22.70
2022-07-26T10:35:44.759Z,22.70
2022-07-26T10:38:22.130Z,23.20
2022-07-26T10:41:07.889Z,23.20
2022-07-26T10:43:42.963Z,23.50
2022-07-26T10:46:18.007Z,23.30
2022-07-26T10:49:06.974Z,23.30
2022-07-26T10:51:36.483Z,23.50
2022-07-26T10:54:13.200Z,23.30
2022-07-26T10:56:42.746Z,22.80
2022-07-26T10:59:09.577Z,22.80
2022-07-26T11:01:41.897Z,22.60
2022-07-26T11:04:22.432Z,22.70
2022-07-26T11:06:49.866Z,22.60
2022-07-26T11:09:21.128Z,22.40
2022-07-26T11:11:48.795Z,22.30
2022-07-26T11:14:18.093Z,22.30
2022-07-26T11:16:50.173Z,22.30
2022-07-26T11:19:19.198Z,22.70
2022-07-26T11:21:52.676Z,22.80
2022-07-26T11:24:19.748Z,22.80
2022-07-26T11:26:47.461Z,22.50
2022-07-26T11:29:17.111Z,22.60
2022-07-26T11:32:04.698Z,22.60
2022-07-26T11:34:48.885Z,22.50
2022-07-26T11:40:12.412Z,22.50
2022-07-26T11:42:39.460Z,22.50
2022-07-26T11:46:04.464Z,22.80
2022-07-26T14:24:44.095Z,24.20
2022-07-26T14:27:18.731Z,24.00
2022-07-26T14:29:53.068Z,23.80
2022-07-26T14:32:30.378Z,23.80
2022-07-26T14:35:08.520Z,23.90
2022-07-26T15:50:56.853Z,24.30
2022-07-26T15:53:29.237Z,24.20
2022-07-26T15:56:01.115Z,25.10
2022-07-26T15:58:29.898Z,24.50
2022-07-26T16:00:59.374Z,24.60
2022-07-26T16:03:26.735Z,24.80
2022-07-26T16:06:06.199Z,24.90
2022-07-26T16:08:33.779Z,25.20
2022-07-26T16:11:00.928Z,24.90
2022-07-26T16:14:09.554Z,24.90
2022-07-26T16:16:44.525Z,24.80
2022-07-26T16:19:19.250Z,24.80
2022-07-26T16:21:49.359Z,24.80
2022-07-26T16:24:19.509Z,24.30
2022-07-26T16:26:47.664Z,24.10
2022-07-26T16:29:15.180Z,23.90
2022-07-26T16:31:42.325Z,23.70
2022-07-26T16:34:09.737Z,23.80
2022-07-26T16:36:36.773Z,24.10
2022-07-26T16:39:04.617Z,24.40
2022-07-26T16:41:31.503Z,24.60
2022-07-26T16:44:00.695Z,24.50
2022-07-26T16:46:27.607Z,24.60
2022-07-26T16:49:04.700Z,24.50
2022-07-26T16:51:36.870Z,24.30
2022-07-26T16:54:10.408Z,24.30
2022-07-26T16:56:37.274Z,24.40
2022-07-26T16:59:10.213Z,24.50
2022-07-26T17:01:37.702Z,24.50
2022-07-26T17:04:04.731Z,24.50
2022-07-26T17:06:31.438Z,24.10
2022-07-26T17:11:40.242Z,24.40
2022-07-26T17:14:10.506Z,24.40
2022-07-26T17:16:46.029Z,24.50
2022-07-26T17:19:44.088Z,24.70
2022-07-26T17:22:12.838Z,24.50
2022-07-26T17:24:39.682Z,24.00
2022-07-26T17:27:06.439Z,24.00
2022-07-26T17:29:36.201Z,24.10
2022-07-26T17:32:02.958Z,24.30
2022-07-26T17:34:29.669Z,24.30
2022-07-26T17:37:01.618Z,24.40
2022-07-26T17:39:51.951Z,24.40
2022-07-26T17:42:15.868Z,24.00
2022-07-26T17:44:42.623Z,23.70
2022-07-26T17:47:27.576Z,23.60
2022-07-26T17:49:58.949Z,23.50
2022-07-26T17:52:31.999Z,23.40
2022-07-26T17:55:01.378Z,23.40
2022-07-26T18:00:10.877Z,23.30
2022-07-26T18:02:37.766Z,23.10
2022-07-26T18:05:04.887Z,23.20
2022-07-26T18:07:31.811Z,23.20
2022-07-26T18:09:58.505Z,23.10
2022-07-26T18:12:28.625Z,23.50
2022-07-26T18:14:55.422Z,23.80
2022-07-26T18:17:22.619Z,24.00
2022-07-26T18:19:49.893Z,24.10
2022-07-26T18:22:16.738Z,24.10
2022-07-26T18:24:44.351Z,23.70
2022-07-26T18:27:11.269Z,23.50
2022-07-26T18:29:45.562Z,23.60
2022-07-26T18:32:23.246Z,23.50
2022-07-26T18:34:51.620Z,23.30
2022-07-26T18:37:20.046Z,23.20
2022-07-26T18:39:48.156Z,23.10
2022-07-26T18:42:15.814Z,23.10
2022-07-26T18:44:43.422Z,23.20
2022-07-26T18:47:13.514Z,23.00
2022-07-26T18:49:41.079Z,22.70
2022-07-26T18:52:10.173Z,22.80
2022-07-26T18:54:37.258Z,22.50
2022-07-26T18:57:07.888Z,22.40
2022-07-26T18:59:39.697Z,22.30
2022-07-26T19:02:15.099Z,22.00
2022-07-26T19:04:42.053Z,22.00
2022-07-26T19:07:08.750Z,21.90
2022-07-26T19:09:35.510Z,21.80
2022-07-26T19:12:02.633Z,21.80
2022-07-26T19:14:29.472Z,21.70
2022-07-26T19:16:56.152Z,21.60
2022-07-26T19:19:22.966Z,21.60
2022-07-26T19:21:50.108Z,21.40
2022-07-26T19:24:19.187Z,21.40
2022-07-26T19:26:45.978Z,21.20
2022-07-26T19:29:13.396Z,21.30
2022-07-26T19:31:41.918Z,21.10
2022-07-26T19:34:08.725Z,21.00
2022-07-26T19:36:35.491Z,20.90
2022-07-26T19:39:03.875Z,20.80
2022-07-26T19:41:40.893Z,20.70
2022-07-26T19:44:07.618Z,20.50
2022-07-26T19:46:37.529Z,20.60
2022-07-26T19:49:07.665Z,20.50
2022-07-26T19:51:34.425Z,20.40
2022-07-26T19:54:01.235Z,20.40
2022-07-26T19:56:28.486Z,20.30
2022-07-26T19:59:02.066Z,20.20
2022-07-26T20:01:29.786Z,20.10
2022-07-26T20:03:56.740Z,20.10
2022-07-26T20:06:23.820Z,20.00
2022-07-26T20:08:59.469Z,20.00
2022-07-26T20:11:28.303Z,19.90
2022-07-26T20:13:57.971Z,19.80
2022-07-26T20:16:24.783Z,19.90
2022-07-26T20:18:51.974Z,19.80
2022-07-26T20:21:18.793Z,19.70
2022-07-26T20:23:48.531Z,19.70
2022-07-26T20:26:15.366Z,19.80
2022-07-26T20:28:42.744Z,19.60
2022-07-26T20:31:09.588Z,19.60
2022-07-26T20:33:36.435Z,19.60
2022-07-26T20:36:03.227Z,19.70
2022-07-26T20:38:29.953Z,19.70
2022-07-26T20:40:56.653Z,19.70
2022-07-26T20:43:23.983Z,19.70
2022-07-26T20:45:53.060Z,19.70
2022-07-26T20:48:20.209Z,19.60
2022-07-26T20:50:46.994Z,19.60
2022-07-26T20:53:13.675Z,19.60
2022-07-26T20:55:40.377Z,19.60
2022-07-26T20:58:07.126Z,19.70
2022-07-26T21:00:34.006Z,19.60
2022-07-26T21:03:00.807Z,19.50
2022-07-26T21:05:32.138Z,19.50
2022-07-26T21:07:59.868Z,19.50
2022-07-26T21:10:29.169Z,19.50
2022-07-26T21:12:57.523Z,19.50
2022-07-26T21:15:24.339Z,19.60
2022-07-26T21:17:52.473Z,19.50
2022-07-26T21:20:19.622Z,19.40
2022-07-26T21:22:46.606Z,19.40
2022-07-26T21:25:13.468Z,19.40
2022-07-26T21:27:40.634Z,19.50
2022-07-26T21:30:08.276Z,19.60
2022-07-26T21:32:35.306Z,19.60
2022-07-26T21:35:02.221Z,19.60
2022-07-26T21:37:29.926Z,19.60
2022-07-26T21:39:56.615Z,19.80
2022-07-26T21:45:08.415Z,19.60
2022-07-26T21:47:35.248Z,19.60
2022-07-26T21:50:03.967Z,19.50
2022-07-26T21:52:30.767Z,19.50
2022-07-26T21:54:57.527Z,19.50
2022-07-26T21:57:37.807Z,19.40
2022-07-26T22:00:08.258Z,19.40
2022-07-26T22:02:45.486Z,19.30
2022-07-26T22:05:30.875Z,19.30
2022-07-26T22:08:01.072Z,19.20
2022-07-26T22:10:44.049Z,19.10
2022-07-26T22:13:17.163Z,19.10
2022-07-26T22:15:53.464Z,19.10
2022-07-26T22:18:22.955Z,19.20
2022-07-26T22:20:53.486Z,19.00
2022-07-26T22:23:27.648Z,18.80
2022-07-26T22:25:54.490Z,18.90
2022-07-26T22:28:24.048Z,18.70
2022-07-26T22:30:51.001Z,18.70
2022-07-26T22:33:17.866Z,18.70
2022-07-26T22:35:44.660Z,18.60
2022-07-26T22:38:11.975Z,18.60
2022-07-26T22:40:40.454Z,18.50
2022-07-26T22:43:08.619Z,18.40
2022-07-26T22:45:35.447Z,18.40
2022-07-26T22:48:04.135Z,18.30
2022-07-26T22:50:31.560Z,18.20
2022-07-26T22:53:00.846Z,18.20
2022-07-26T22:55:27.905Z,18.20
2022-07-26T22:57:54.785Z,18.10
2022-07-26T23:00:21.895Z,18.10
2022-07-26T23:02:48.919Z,18.10
2022-07-26T23:05:16.229Z,18.00
2022-07-26T23:07:47.177Z,18.00
2022-07-26T23:10:21.649Z,18.00
2022-07-26T23:12:48.556Z,18.20
2022-07-26T23:15:15.313Z,17.90
2022-07-26T23:17:42.153Z,18.10
2022-07-26T23:20:10.340Z,18.20
2022-07-26T23:22:38.302Z,18.00
2022-07-26T23:25:06.184Z,18.10
2022-07-26T23:27:33.173Z,17.90
2022-07-26T23:29:59.905Z,17.90
2022-07-26T23:32:35.448Z,17.70
2022-07-26T23:35:02.454Z,17.90
2022-07-26T23:37:29.372Z,17.90
2022-07-26T23:39:56.257Z,17.90
2022-07-26T23:42:22.992Z,17.90
2022-07-26T23:44:49.886Z,17.90
2022-07-26T23:47:19.519Z,18.00
2022-07-26T23:49:46.380Z,18.00
2022-07-26T23:52:13.313Z,17.90
2022-07-26T23:54:45.283Z,18.00
2022-07-26T23:57:12.283Z,17.90
2022-07-26T23:59:55.924Z,18.00
